sensor_id;sensor_type;location;lat;lon;timestamp;pressure;altitude;pressure_sealevel;temperature;humidity
48796;BME280;34607;48.520;-1.330;2023-04-28T06:39:26;99963.25;;;14.85;100.00
48796;BME280;34607;48.520;-1.330;2023-04-28T06:41:54;99961.53;;;14.86;100.00
48796;BME280;34607;48.520;-1.330;2023-04-28T06:44:25;99965.84;;;14.87;100.00
48796;BME280;34607;48.520;-1.330;2023-04-28T06:46:52;99958.88;;;14.89;100.00
48796;BME280;34607;48.520;-1.330;2023-04-28T06:49:19;99968.44;;;14.90;100.00
48796;BME280;34607;48.520;-1.330;2023-04-28T06:51:46;99971.03;;;14.90;100.00
48796;BME280;34607;48.520;-1.330;2023-04-28T06:54:13;99973.66;;;14.88;100.00
48796;BME280;34607;48.520;-1.330;2023-04-28T06:56:44;99978.84;;;14.91;100.00
48796;BME280;34607;48.520;-1.330;2023-04-28T06:59:11;99980.56;;;14.94;100.00
48796;BME280;34607;48.520;-1.330;2023-04-28T07:01:38;99982.25;;;15.01;100.00
48796;BME280;34607;48.520;-1.330;2023-04-28T07:04:06;99989.19;;;15.02;100.00
48796;BME280;34607;48.520;-1.330;2023-04-28T07:06:33;99990.94;;;15.05;100.00
48796;BME280;34607;48.520;-1.330;2023-04-28T07:09:00;99989.19;;;15.05;100.00
48796;BME280;34607;48.520;-1.330;2023-04-28T07:11:27;99988.31;;;15.06;100.00
48796;BME280;34607;48.520;-1.330;2023-04-28T07:13:56;99989.16;;;15.10;100.00
48796;BME280;34607;48.520;-1.330;2023-04-28T07:16:23;99995.22;;;15.12;100.00
48796;BME280;34607;48.520;-1.330;2023-04-28T07:18:50;99986.56;;;15.08;100.00
48796;BME280;34607;48.520;-1.330;2023-04-28T07:21:17;100000.31;;;15.23;100.00
48796;BME280;34607;48.520;-1.330;2023-04-28T07:23:44;99992.50;;;15.23;100.00
48796;BME280;34607;48.520;-1.330;2023-04-28T07:26:11;99992.50;;;15.23;100.00
48796;BME280;34607;48.520;-1.330;2023-04-28T07:28:40;99999.44;;;15.27;100.00
48796;BME280;34607;48.520;-1.330;2023-04-28T07:31:09;100005.50;;;15.32;100.00
48796;BME280;34607;48.520;-1.330;2023-04-28T07:33:36;100008.97;;;15.29;100.00
48796;BME280;34607;48.520;-1.330;2023-04-28T07:36:03;100015.03;;;15.33;100.00
48796;BME280;34607;48.520;-1.330;2023-04-28T07:38:32;100008.03;;;15.35;100.00
48796;BME280;34607;48.520;-1.330;2023-04-28T07:40:59;100002.81;;;15.38;100.00
48796;BME280;34607;48.520;-1.330;2023-04-28T07:43:26;100008.00;;;15.43;100.00
48796;BME280;34607;48.520;-1.330;2023-04-28T07:45:53;100008.72;;;15.57;100.00
48796;BME280;34607;48.520;-1.330;2023-04-28T07:48:22;100009.53;;;15.64;100.00
48796;BME280;34607;48.520;-1.330;2023-04-28T07:50:49;100008.63;;;15.68;100.00
48796;BME280;34607;48.520;-1.330;2023-04-28T07:53:16;100012.94;;;15.75;100.00
48796;BME280;34607;48.520;-1.330;2023-04-28T07:55:43;100012.03;;;15.78;100.00
48796;BME280;34607;48.520;-1.330;2023-04-28T07:58:10;100011.16;;;15.77;100.00
48796;BME280;34607;48.520;-1.330;2023-04-28T08:00:38;100015.53;;;15.77;100.00
48796;BME280;34607;48.520;-1.330;2023-04-28T08:03:05;100019.88;;;15.73;100.00
48796;BME280;34607;48.520;-1.330;2023-04-28T08:05:35;100011.25;;;15.65;100.00
48796;BME280;34607;48.520;-1.330;2023-04-28T08:08:06;100018.16;;;15.69;100.00
48796;BME280;34607;48.520;-1.330;2023-04-28T08:10:33;100026.84;;;15.71;100.00
48796;BME280;34607;48.520;-1.330;2023-04-28T08:13:00;100026.94;;;15.65;100.00
48796;BME280;34607;48.520;-1.330;2023-04-28T08:15:28;100026.91;;;15.68;100.00
48796;BME280;34607;48.520;-1.330;2023-04-28T08:17:55;100024.28;;;15.68;100.00
48796;BME280;34607;48.520;-1.330;2023-04-28T08:20:22;100024.22;;;15.71;100.00
48796;BME280;34607;48.520;-1.330;2023-04-28T08:22:50;100033.81;;;15.72;100.00
48796;BME280;34607;48.520;-1.330;2023-04-28T08:25:17;100037.31;;;15.69;100.00
48796;BME280;34607;48.520;-1.330;2023-04-28T08:27:44;100045.22;;;15.63;100.00
48796;BME280;34607;48.520;-1.330;2023-04-28T08:30:11;100044.28;;;15.66;100.00
48796;BME280;34607;48.520;-1.330;2023-04-28T08:32:39;100038.19;;;15.68;100.00
48796;BME280;34607;48.520;-1.330;2023-04-28T08:35:06;100047.56;;;15.91;100.00
48796;BME280;34607;48.520;-1.330;2023-04-28T08:37:34;100041.38;;;16.00;100.00
48796;BME280;34607;48.520;-1.330;2023-04-28T08:40:03;100047.28;;;16.16;100.00
48796;BME280;34607;48.520;-1.330;2023-04-28T08:42:34;100047.09;;;16.31;100.00
48796;BME280;34607;48.520;-1.330;2023-04-28T08:45:03;100052.22;;;16.42;100.00
48796;BME280;34607;48.520;-1.330;2023-04-28T08:47:33;100033.16;;;16.34;100.00
48796;BME280;34607;48.520;-1.330;2023-04-28T08:50:02;100041.84;;;16.36;100.00
48796;BME280;34607;48.520;-1.330;2023-04-28T08:52:31;100054.09;;;16.31;100.00
48796;BME280;34607;48.520;-1.330;2023-04-28T08:54:59;100052.41;;;16.26;100.00
48796;BME280;34607;48.520;-1.330;2023-04-28T08:57:33;100061.88;;;16.35;100.00
48796;BME280;34607;48.520;-1.330;2023-04-28T09:00:01;100069.56;;;16.47;100.00
48796;BME280;34607;48.520;-1.330;2023-04-28T09:02:28;100062.41;;;16.60;100.00
48796;BME280;34607;48.520;-1.330;2023-04-28T09:04:55;100067.78;;;16.51;100.00
48796;BME280;34607;48.520;-1.330;2023-04-28T09:07:23;100072.03;;;16.60;100.00
48796;BME280;34607;48.520;-1.330;2023-04-28T09:10:14;100078.69;;;16.82;100.00
48796;BME280;34607;48.520;-1.330;2023-04-28T09:12:43;100090.69;;;17.00;100.00
48796;BME280;34607;48.520;-1.330;2023-04-28T09:15:42;100090.97;;;17.41;100.00
48796;BME280;34607;48.520;-1.330;2023-04-28T09:18:13;100070.06;;;17.38;100.00
48796;BME280;34607;48.520;-1.330;2023-04-28T09:20:40;100069.19;;;17.37;100.00
48796;BME280;34607;48.520;-1.330;2023-04-28T09:23:15;100095.91;;;17.58;100.00
48796;BME280;34607;48.520;-1.330;2023-04-28T09:25:57;100102.13;;;17.51;100.00
48796;BME280;34607;48.520;-1.330;2023-04-28T09:28:26;100095.28;;;17.42;100.00
48796;BME280;34607;48.520;-1.330;2023-04-28T09:30:53;100104.09;;;17.38;100.00
48796;BME280;34607;48.520;-1.330;2023-04-28T09:33:20;100100.69;;;17.31;100.00
48796;BME280;34607;48.520;-1.330;2023-04-28T09:35:47;100111.28;;;17.23;100.00
48796;BME280;34607;48.520;-1.330;2023-04-28T09:38:15;100096.94;;;16.90;100.00
48796;BME280;34607;48.520;-1.330;2023-04-28T09:40:49;100093.50;;;16.83;100.00
48796;BME280;34607;48.520;-1.330;2023-04-28T09:43:26;100098.47;;;17.05;100.00
48796;BME280;34607;48.520;-1.330;2023-04-28T09:45:54;100084.44;;;17.11;100.00
48796;BME280;34607;48.520;-1.330;2023-04-28T09:48:30;100087.84;;;17.16;100.00
48796;BME280;34607;48.520;-1.330;2023-04-28T09:50:57;100066.41;;;16.91;100.00
48796;BME280;34607;48.520;-1.330;2023-04-28T09:53:26;100099.31;;;17.09;100.00
48796;BME280;34607;48.520;-1.330;2023-04-28T09:55:55;100105.22;;;17.20;100.00
48796;BME280;34607;48.520;-1.330;2023-04-28T09:58:24;100106.66;;;17.41;100.00
48796;BME280;34607;48.520;-1.330;2023-04-28T10:00:54;100097.63;;;17.59;100.00
48796;BME280;34607;48.520;-1.330;2023-04-28T10:03:22;100100.94;;;17.70;100.00
48796;BME280;34607;48.520;-1.330;2023-04-28T10:05:50;100100.81;;;17.76;100.00
48796;BME280;34607;48.520;-1.330;2023-04-28T10:08:19;100101.75;;;17.74;100.00
48796;BME280;34607;48.520;-1.330;2023-04-28T10:10:47;100107.75;;;17.82;100.00
48796;BME280;34607;48.520;-1.330;2023-04-28T10:13:16;100105.69;;;18.01;100.00
48796;BME280;34607;48.520;-1.330;2023-04-28T10:15:44;100115.47;;;17.90;100.00
48796;BME280;34607;48.520;-1.330;2023-04-28T10:18:13;100113.25;;;17.67;100.00
48796;BME280;34607;48.520;-1.330;2023-04-28T10:20:43;100129.34;;;17.39;100.00
48796;BME280;34607;48.520;-1.330;2023-04-28T10:23:26;100123.47;;;17.25;100.00
48796;BME280;34607;48.520;-1.330;2023-04-28T10:25:57;100126.25;;;17.15;100.00
48796;BME280;34607;48.520;-1.330;2023-04-28T10:28:25;100103.56;;;17.16;100.00
48796;BME280;34607;48.520;-1.330;2023-04-28T10:31:08;100128.44;;;17.43;100.00
48796;BME280;34607;48.520;-1.330;2023-04-28T10:33:38;100123.91;;;17.53;100.00
48796;BME280;34607;48.520;-1.330;2023-04-28T10:36:06;100118.78;;;17.47;100.00
48796;BME280;34607;48.520;-1.330;2023-04-28T10:38:34;100131.44;;;17.74;100.00
48796;BME280;34607;48.520;-1.330;2023-04-28T10:41:01;100143.31;;;17.95;100.00
48796;BME280;34607;48.520;-1.330;2023-04-28T10:43:36;100144.34;;;17.87;100.00
48796;BME280;34607;48.520;-1.330;2023-04-28T10:46:05;100145.31;;;17.79;100.00
48796;BME280;34607;48.520;-1.330;2023-04-28T10:48:52;100149.75;;;17.74;100.00
48796;BME280;34607;48.520;-1.330;2023-04-28T10:51:27;100145.66;;;18.11;100.00
48796;BME280;34607;48.520;-1.330;2023-04-28T10:54:24;100133.41;;;18.13;100.00
48796;BME280;34607;48.520;-1.330;2023-04-28T10:57:17;100133.75;;;17.94;100.00
48796;BME280;34607;48.520;-1.330;2023-04-28T10:59:44;100144.19;;;17.96;100.00
48796;BME280;34607;48.520;-1.330;2023-04-28T11:02:36;100143.16;;;18.05;100.00
48796;BME280;34607;48.520;-1.330;2023-04-28T11:05:19;100135.56;;;17.91;100.00
48796;BME280;34607;48.520;-1.330;2023-04-28T11:11:25;100142.66;;;17.83;100.00
48796;BME280;34607;48.520;-1.330;2023-04-28T11:13:53;100154.78;;;17.90;100.00
48796;BME280;34607;48.520;-1.330;2023-04-28T11:16:23;100152.22;;;17.84;100.00
48796;BME280;34607;48.520;-1.330;2023-04-28T11:18:58;100142.69;;;17.79;100.00
48796;BME280;34607;48.520;-1.330;2023-04-28T11:21:31;100160.56;;;18.09;100.00
48796;BME280;34607;48.520;-1.330;2023-04-28T11:23:58;100145.69;;;18.09;100.00
48796;BME280;34607;48.520;-1.330;2023-04-28T11:26:27;100138.25;;;17.85;100.00
48796;BME280;34607;48.520;-1.330;2023-04-28T11:28:56;100156.28;;;18.03;100.00
48796;BME280;34607;48.520;-1.330;2023-04-28T11:31:24;100137.09;;;18.03;100.00
48796;BME280;34607;48.520;-1.330;2023-04-28T11:34:03;100138.03;;;17.99;99.64
48796;BME280;34607;48.520;-1.330;2023-04-28T11:36:34;100141.66;;;17.90;100.00
48796;BME280;34607;48.520;-1.330;2023-04-28T11:39:02;100141.47;;;18.01;100.00
48796;BME280;34607;48.520;-1.330;2023-04-28T11:41:32;100154.94;;;17.77;100.00
48796;BME280;34607;48.520;-1.330;2023-04-28T11:43:59;100152.41;;;17.73;100.00
48796;BME280;34607;48.520;-1.330;2023-04-28T11:46:26;100153.16;;;17.79;100.00
48796;BME280;34607;48.520;-1.330;2023-04-28T11:49:01;100148.72;;;17.86;100.00
48796;BME280;34607;48.520;-1.330;2023-04-28T11:51:31;100150.00;;;18.13;100.00
48796;BME280;34607;48.520;-1.330;2023-04-28T11:54:00;100140.66;;;17.97;98.39
48796;BME280;34607;48.520;-1.330;2023-04-28T11:56:28;100138.22;;;17.88;100.00
48796;BME280;34607;48.520;-1.330;2023-04-28T11:59:04;100138.19;;;17.91;99.00
48796;BME280;34607;48.520;-1.330;2023-04-28T12:01:33;100147.84;;;17.84;99.99
48796;BME280;34607;48.520;-1.330;2023-04-28T12:04:02;100153.03;;;17.89;100.00
48796;BME280;34607;48.520;-1.330;2023-04-28T12:06:29;100159.41;;;17.71;99.90
48796;BME280;34607;48.520;-1.330;2023-04-28T12:08:57;100157.69;;;17.68;100.00
48796;BME280;34607;48.520;-1.330;2023-04-28T12:11:30;100154.50;;;18.05;100.00
48796;BME280;34607;48.520;-1.330;2023-04-28T12:14:04;100160.78;;;17.96;99.58
48796;BME280;34607;48.520;-1.330;2023-04-28T12:16:42;100134.19;;;18.18;98.95
48796;BME280;34607;48.520;-1.330;2023-04-28T12:19:11;100140.41;;;18.12;97.55
48796;BME280;34607;48.520;-1.330;2023-04-28T12:21:39;100153.06;;;17.86;98.60
48796;BME280;34607;48.520;-1.330;2023-04-28T12:24:18;100153.69;;;18.03;100.00
48796;BME280;34607;48.520;-1.330;2023-04-28T12:26:47;100157.50;;;18.33;99.47
48796;BME280;34607;48.520;-1.330;2023-04-28T12:29:36;100160.69;;;18.49;97.55
48796;BME280;34607;48.520;-1.330;2023-04-28T12:32:05;100184.31;;;18.48;97.94
48796;BME280;34607;48.520;-1.330;2023-04-28T12:34:33;100176.81;;;18.28;97.07
48796;BME280;34607;48.520;-1.330;2023-04-28T12:37:00;100186.81;;;18.04;98.43
48796;BME280;34607;48.520;-1.330;2023-04-28T12:39:30;100182.28;;;18.15;98.63
48796;BME280;34607;48.520;-1.330;2023-04-28T12:41:59;100175.16;;;18.24;97.31
48796;BME280;34607;48.520;-1.330;2023-04-28T12:44:30;100172.09;;;17.99;97.43
48796;BME280;34607;48.520;-1.330;2023-04-28T12:47:04;100190.63;;;17.85;97.67
48796;BME280;34607;48.520;-1.330;2023-04-28T12:49:32;100183.78;;;17.76;98.38
48796;BME280;34607;48.520;-1.330;2023-04-28T12:51:59;100190.13;;;17.61;98.63
48796;BME280;34607;48.520;-1.330;2023-04-28T12:54:26;100198.09;;;17.53;98.81
48796;BME280;34607;48.520;-1.330;2023-04-28T12:56:53;100187.19;;;17.81;99.44
48796;BME280;34607;48.520;-1.330;2023-04-28T12:59:22;100193.63;;;18.14;98.71
48796;BME280;34607;48.520;-1.330;2023-04-28T13:01:49;100208.44;;;18.19;97.63
48796;BME280;34607;48.520;-1.330;2023-04-28T13:04:16;100205.09;;;18.09;97.35
48796;BME280;34607;48.520;-1.330;2023-04-28T13:06:44;100209.56;;;18.02;97.59
48796;BME280;34607;48.520;-1.330;2023-04-28T13:09:11;100192.19;;;17.98;97.98
48796;BME280;34607;48.520;-1.330;2023-04-28T13:11:39;100192.97;;;18.03;97.92
48796;BME280;34607;48.520;-1.330;2023-04-28T13:14:06;100194.34;;;18.24;98.07
48796;BME280;34607;48.520;-1.330;2023-04-28T13:16:35;100162.16;;;18.16;96.88
48796;BME280;34607;48.520;-1.330;2023-04-28T13:19:02;100196.13;;;18.22;96.15
48796;BME280;34607;48.520;-1.330;2023-04-28T13:21:34;100195.63;;;18.02;96.22
48796;BME280;34607;48.520;-1.330;2023-04-28T13:24:01;100197.69;;;17.79;97.59
48796;BME280;34607;48.520;-1.330;2023-04-28T13:26:29;100195.25;;;17.69;98.18
48796;BME280;34607;48.520;-1.330;2023-04-28T13:28:56;100192.50;;;17.75;98.56
48796;BME280;34607;48.520;-1.330;2023-04-28T13:31:24;100186.94;;;18.00;98.51
48796;BME280;34607;48.520;-1.330;2023-04-28T13:33:53;100204.19;;;18.11;97.54
48796;BME280;34607;48.520;-1.330;2023-04-28T13:36:20;100195.38;;;18.15;96.85
48796;BME280;34607;48.520;-1.330;2023-04-28T13:38:47;100195.66;;;18.00;96.70
48796;BME280;34607;48.520;-1.330;2023-04-28T13:41:14;100197.47;;;17.95;97.32
48796;BME280;34607;48.520;-1.330;2023-04-28T13:43:41;100197.50;;;17.93;96.81
48796;BME280;34607;48.520;-1.330;2023-04-28T13:46:09;100187.81;;;17.97;97.04
48796;BME280;34607;48.520;-1.330;2023-04-28T13:48:37;100192.16;;;18.00;96.89
48796;BME280;34607;48.520;-1.330;2023-04-28T13:51:06;100198.72;;;18.25;96.18
48796;BME280;34607;48.520;-1.330;2023-04-28T13:53:34;100203.31;;;18.11;95.70
48796;BME280;34607;48.520;-1.330;2023-04-28T13:56:03;100199.34;;;17.85;95.56
48796;BME280;34607;48.520;-1.330;2023-04-28T13:58:30;100200.09;;;17.95;96.15
48796;BME280;34607;48.520;-1.330;2023-04-28T14:00:57;100185.19;;;17.99;95.39
48796;BME280;34607;48.520;-1.330;2023-04-28T14:03:25;100205.16;;;18.04;95.75
48796;BME280;34607;48.520;-1.330;2023-04-28T14:05:53;100195.88;;;17.86;96.06
48796;BME280;34607;48.520;-1.330;2023-04-28T14:08:23;100198.47;;;17.88;97.00
48796;BME280;34607;48.520;-1.330;2023-04-28T14:10:50;100185.31;;;17.91;95.88
48796;BME280;34607;48.520;-1.330;2023-04-28T14:13:18;100186.00;;;18.02;95.46
48796;BME280;34607;48.520;-1.330;2023-04-28T14:15:45;100192.59;;;18.25;95.55
48796;BME280;34607;48.520;-1.330;2023-04-28T14:18:12;100194.88;;;18.43;93.51
48796;BME280;34607;48.520;-1.330;2023-04-28T14:20:40;100189.16;;;18.21;94.52
48796;BME280;34607;48.520;-1.330;2023-04-28T14:23:08;100191.78;;;18.21;94.25
48796;BME280;34607;48.520;-1.330;2023-04-28T14:25:37;100191.75;;;18.23;94.62
48796;BME280;34607;48.520;-1.330;2023-04-28T14:28:04;100188.56;;;18.05;95.73
48796;BME280;34607;48.520;-1.330;2023-04-28T14:30:31;100181.38;;;18.18;94.66
48796;BME280;34607;48.520;-1.330;2023-04-28T14:32:58;100184.84;;;18.19;95.22
48796;BME280;34607;48.520;-1.330;2023-04-28T14:35:26;100180.38;;;18.25;94.42
48796;BME280;34607;48.520;-1.330;2023-04-28T14:37:55;100194.44;;;18.20;94.85
48796;BME280;34607;48.520;-1.330;2023-04-28T14:40:22;100197.97;;;18.19;95.19
48796;BME280;34607;48.520;-1.330;2023-04-28T14:42:51;100198.81;;;18.19;94.53
48796;BME280;34607;48.520;-1.330;2023-04-28T14:45:18;100201.03;;;18.42;94.60
48796;BME280;34607;48.520;-1.330;2023-04-28T14:47:45;100195.13;;;18.76;93.12
48796;BME280;34607;48.520;-1.330;2023-04-28T14:50:13;100200.47;;;18.71;92.06
48796;BME280;34607;48.520;-1.330;2023-04-28T14:52:40;100208.13;;;18.37;92.32
48796;BME280;34607;48.520;-1.330;2023-04-28T14:55:08;100204.06;;;18.18;94.19
48796;BME280;34607;48.520;-1.330;2023-04-28T14:57:35;100205.88;;;18.15;93.89
48796;BME280;34607;48.520;-1.330;2023-04-28T15:00:05;100187.00;;;17.95;94.53
48796;BME280;34607;48.520;-1.330;2023-04-28T15:02:33;100199.78;;;18.13;94.81
48796;BME280;34607;48.520;-1.330;2023-04-28T15:05:00;100191.16;;;18.07;95.00
48796;BME280;34607;48.520;-1.330;2023-04-28T15:07:27;100186.25;;;17.84;95.17
48796;BME280;34607;48.520;-1.330;2023-04-28T15:09:56;100192.88;;;17.52;94.68
48796;BME280;34607;48.520;-1.330;2023-04-28T15:12:23;100192.81;;;17.56;95.85
48796;BME280;34607;48.520;-1.330;2023-04-28T15:14:50;100189.44;;;17.50;95.28
48796;BME280;34607;48.520;-1.330;2023-04-28T15:17:19;100199.13;;;17.41;95.78
48796;BME280;34607;48.520;-1.330;2023-04-28T15:19:47;100204.88;;;17.67;95.74
48796;BME280;34607;48.520;-1.330;2023-04-28T15:22:15;100200.84;;;17.42;95.15
48796;BME280;34607;48.520;-1.330;2023-04-28T15:24:42;100195.53;;;17.49;94.96
48796;BME280;34607;48.520;-1.330;2023-04-28T15:27:09;100196.69;;;17.29;96.04
48796;BME280;34607;48.520;-1.330;2023-04-28T15:29:36;100190.38;;;17.42;95.22
48796;BME280;34607;48.520;-1.330;2023-04-28T15:32:03;100197.06;;;17.65;95.20
48796;BME280;34607;48.520;-1.330;2023-04-28T15:34:33;100193.50;;;17.68;94.82
48796;BME280;34607;48.520;-1.330;2023-04-28T15:37:02;100195.22;;;17.70;94.35
48796;BME280;34607;48.520;-1.330;2023-04-28T15:39:31;100196.56;;;17.37;94.93
48796;BME280;34607;48.520;-1.330;2023-04-28T15:41:58;100202.03;;;17.21;95.74
48796;BME280;34607;48.520;-1.330;2023-04-28T15:44:25;100190.97;;;16.98;95.97
48796;BME280;34607;48.520;-1.330;2023-04-28T15:46:52;100203.25;;;16.94;97.04
48796;BME280;34607;48.520;-1.330;2023-04-28T15:49:19;100202.31;;;17.00;97.32
48796;BME280;34607;48.520;-1.330;2023-04-28T15:51:48;100207.63;;;16.92;96.25
48796;BME280;34607;48.520;-1.330;2023-04-28T15:54:15;100212.06;;;16.84;96.83
48796;BME280;34607;48.520;-1.330;2023-04-28T15:56:42;100205.00;;;16.94;97.02
48796;BME280;34607;48.520;-1.330;2023-04-28T15:59:09;100204.19;;;16.87;97.12
48796;BME280;34607;48.520;-1.330;2023-04-28T16:01:39;100203.38;;;16.79;97.24
48796;BME280;34607;48.520;-1.330;2023-04-28T16:04:06;100195.91;;;16.45;97.62
48796;BME280;34607;48.520;-1.330;2023-04-28T16:06:34;100203.97;;;16.23;98.54
48796;BME280;34607;48.520;-1.330;2023-04-28T16:09:02;100197.09;;;16.16;99.17
48796;BME280;34607;48.520;-1.330;2023-04-28T16:11:30;100209.13;;;16.29;99.17
48796;BME280;34607;48.520;-1.330;2023-04-28T16:13:57;100210.84;;;16.32;98.29
48796;BME280;34607;48.520;-1.330;2023-04-28T16:16:24;100212.63;;;16.28;98.17
48796;BME280;34607;48.520;-1.330;2023-04-28T16:18:51;100213.59;;;16.20;97.94
48796;BME280;34607;48.520;-1.330;2023-04-28T16:21:19;100202.38;;;16.04;97.98
48796;BME280;34607;48.520;-1.330;2023-04-28T16:23:49;100206.09;;;15.78;99.06
48796;BME280;34607;48.520;-1.330;2023-04-28T16:26:17;100201.91;;;15.52;99.68
48796;BME280;34607;48.520;-1.330;2023-04-28T16:28:44;100214.88;;;15.63;99.89
48796;BME280;34607;48.520;-1.330;2023-04-28T16:31:12;100213.06;;;15.76;99.62
48796;BME280;34607;48.520;-1.330;2023-04-28T16:33:39;100216.75;;;15.38;100.00
48796;BME280;34607;48.520;-1.330;2023-04-28T16:36:06;100214.28;;;15.12;100.00
48796;BME280;34607;48.520;-1.330;2023-04-28T16:38:33;100210.81;;;15.11;100.00
48796;BME280;34607;48.520;-1.330;2023-04-28T16:41:00;100219.50;;;15.12;100.00
48796;BME280;34607;48.520;-1.330;2023-04-28T16:43:28;100221.25;;;15.10;100.00
48796;BME280;34607;48.520;-1.330;2023-04-28T16:45:57;100210.03;;;14.91;100.00
48796;BME280;34607;48.520;-1.330;2023-04-28T16:48:24;100227.44;;;14.72;100.00
48796;BME280;34607;48.520;-1.330;2023-04-28T16:50:51;100225.69;;;14.82;100.00
48796;BME280;34607;48.520;-1.330;2023-04-28T16:53:18;100221.31;;;14.84;100.00
48796;BME280;34607;48.520;-1.330;2023-04-28T16:55:45;100230.00;;;14.93;100.00
48796;BME280;34607;48.520;-1.330;2023-04-28T16:58:12;100225.63;;;14.98;100.00
48796;BME280;34607;48.520;-1.330;2023-04-28T17:00:41;100230.03;;;14.83;100.00
48796;BME280;34607;48.520;-1.330;2023-04-28T17:03:08;100226.53;;;14.93;100.00
48796;BME280;34607;48.520;-1.330;2023-04-28T17:05:36;100230.00;;;14.92;100.00
48796;BME280;34607;48.520;-1.330;2023-04-28T17:08:03;100222.19;;;14.89;100.00
48796;BME280;34607;48.520;-1.330;2023-04-28T17:10:30;100235.25;;;14.81;100.00
48796;BME280;34607;48.520;-1.330;2023-04-28T17:12:57;100237.00;;;14.76;100.00
48796;BME280;34607;48.520;-1.330;2023-04-28T17:15:24;100241.31;;;14.78;100.00
48796;BME280;34607;48.520;-1.330;2023-04-28T17:17:53;100246.56;;;14.66;100.00
48796;BME280;34607;48.520;-1.330;2023-04-28T17:20:20;100241.38;;;14.57;100.00
48796;BME280;34607;48.520;-1.330;2023-04-28T17:22:48;100247.44;;;14.36;100.00
48796;BME280;34607;48.520;-1.330;2023-04-28T17:25:15;100247.44;;;14.37;100.00
48796;BME280;34607;48.520;-1.330;2023-04-28T17:27:43;100247.44;;;14.37;100.00
48796;BME280;34607;48.520;-1.330;2023-04-28T17:30:10;100251.81;;;14.40;100.00
48796;BME280;34607;48.520;-1.330;2023-04-28T17:32:37;100251.78;;;14.51;100.00
48796;BME280;34607;48.520;-1.330;2023-04-28T17:35:07;100253.56;;;14.39;100.00
48796;BME280;34607;48.520;-1.330;2023-04-28T17:37:35;100242.25;;;14.28;100.00
48796;BME280;34607;48.520;-1.330;2023-04-28T17:40:03;100263.97;;;14.36;100.00
48796;BME280;34607;48.520;-1.330;2023-04-28T17:42:30;100263.97;;;14.32;100.00
48796;BME280;34607;48.520;-1.330;2023-04-28T17:44:57;100276.13;;;14.27;100.00
48796;BME280;34607;48.520;-1.330;2023-04-28T17:47:24;100255.28;;;14.10;100.00
48796;BME280;34607;48.520;-1.330;2023-04-28T17:49:52;100247.47;;;14.07;100.00
48796;BME280;34607;48.520;-1.330;2023-04-28T17:52:21;100276.09;;;13.94;100.00
48796;BME280;34607;48.520;-1.330;2023-04-28T17:54:48;100276.09;;;13.99;100.00
48796;BME280;34607;48.520;-1.330;2023-04-28T17:57:15;100278.69;;;13.96;100.00
48796;BME280;34607;48.520;-1.330;2023-04-28T17:59:42;100273.53;;;14.03;100.00
48796;BME280;34607;48.520;-1.330;2023-04-28T18:02:11;100276.97;;;14.10;100.00
48796;BME280;34607;48.520;-1.330;2023-04-28T18:04:38;100269.16;;;14.04;100.00
48796;BME280;34607;48.520;-1.330;2023-04-28T18:07:05;100280.44;;;14.00;100.00
48796;BME280;34607;48.520;-1.330;2023-04-28T18:09:34;100282.19;;;14.04;100.00
48796;BME280;34607;48.520;-1.330;2023-04-28T18:12:01;100285.59;;;13.84;100.00
48796;BME280;34607;48.520;-1.330;2023-04-28T18:14:29;100275.19;;;13.75;100.00
48796;BME280;34607;48.520;-1.330;2023-04-28T18:16:56;100276.03;;;13.63;100.00
48796;BME280;34607;48.520;-1.330;2023-04-28T18:19:24;100264.75;;;13.57;100.00
48796;BME280;34607;48.520;-1.330;2023-04-28T18:21:51;100276.88;;;13.56;100.00
48796;BME280;34607;48.520;-1.330;2023-04-28T18:24:19;100270.81;;;13.63;100.00
48796;BME280;34607;48.520;-1.330;2023-04-28T18:26:48;100283.84;;;13.76;100.00
48796;BME280;34607;48.520;-1.330;2023-04-28T18:29:15;100282.09;;;13.65;100.00
48796;BME280;34607;48.520;-1.330;2023-04-28T18:31:43;100282.97;;;13.61;100.00
48796;BME280;34607;48.520;-1.330;2023-04-28T18:34:10;100292.53;;;13.62;100.00
48796;BME280;34607;48.520;-1.330;2023-04-28T18:36:37;100294.25;;;13.63;100.00
48796;BME280;34607;48.520;-1.330;2023-04-28T18:39:04;100288.97;;;13.46;100.00
48796;BME280;34607;48.520;-1.330;2023-04-28T18:41:32;100292.53;;;13.62;100.00
48796;BME280;34607;48.520;-1.330;2023-04-28T18:44:01;100296.81;;;13.51;100.00
48796;BME280;34607;48.520;-1.330;2023-04-28T18:46:28;100295.06;;;13.50;100.00
48796;BME280;34607;48.520;-1.330;2023-04-28T18:48:55;100289.91;;;13.56;100.00
48796;BME280;34607;48.520;-1.330;2023-04-28T18:51:22;100279.47;;;13.55;100.00
48796;BME280;34607;48.520;-1.330;2023-04-28T18:53:49;100294.28;;;13.71;100.00
48796;BME280;34607;48.520;-1.330;2023-04-28T18:56:16;100291.66;;;13.74;100.00
48796;BME280;34607;48.520;-1.330;2023-04-28T18:58:45;100293.41;;;13.64;100.00
48796;BME280;34607;48.520;-1.330;2023-04-28T19:01:14;100287.31;;;13.61;100.00
48796;BME280;34607;48.520;-1.330;2023-04-28T19:03:41;100299.41;;;13.49;100.00
48796;BME280;34607;48.520;-1.330;2023-04-28T19:06:09;100305.47;;;13.50;100.00
48796;BME280;34607;48.520;-1.330;2023-04-28T19:08:36;100303.75;;;13.57;100.00
48796;BME280;34607;48.520;-1.330;2023-04-28T19:11:05;100295.97;;;13.61;100.00
48796;BME280;34607;48.520;-1.330;2023-04-28T19:13:34;100299.44;;;13.62;100.00
48796;BME280;34607;48.520;-1.330;2023-04-28T19:16:01;100297.72;;;13.61;100.00
48796;BME280;34607;48.520;-1.330;2023-04-28T19:18:30;100279.47;;;13.50;100.00
48796;BME280;34607;48.520;-1.330;2023-04-28T19:20:58;100302.03;;;13.53;100.00
48796;BME280;34607;48.520;-1.330;2023-04-28T19:23:25;100295.94;;;13.49;100.00